Airfield :
LOGIN :

Register | Disclaimer

   EN    FR    IT 

 










Legend :    VFR   Marginal VFR   IFR   Intensive IFR   Very Intensive IFR
Visi :
Ceiling :
>= 8 km
>= 3000ft
5 to 8 km
1000 to 3000 ft
1500m to 5 km
500 to 1000 ft
800 to 1500m
200 to 500 ft
< 800m
< 200 ft
Symbols :   Thunderstorms  Fog  Heavy snow  Heavy precipitations  Wind > 20 kt
SIGMETs :     Misc.  Thunderstorms  Icing  Turbulence  Mountain Waves  Volcanic Ashes







- Airport Elevation : 526 ft
- IATA code : LTN
- Download approach charts


EGGW - London Luton

CURRENT METAR :
  • 201620Z AUTO 04007KT 5000 -DZ OVC002 02/01 Q0999

EXPIRED METARs :
  • 201550Z AUTO 04006KT 5000 -DZ BKN002 OVC007 01/01 Q0999
  • 201520Z AUTO 04006G16KT 010V110 9999 OVC002 01/01 Q0999
  • 201450Z AUTO 04006KT 6000 -RA BKN002/// OVC018/// //////TCU 01/01 Q0998
  • 201420Z 04004KT 010V080 4400 -RASN OVC002CB 01/01 Q0998 RESN
  • 201350Z AUTO 05005KT 6000 -RA OVC002/// //////CB 02/01 Q0998 RERA

TAF AMD TAF EGGW
Valid from the 20 at 16:00 until the 21 at 12:00 UTC


201618Z 2016/2112 12006KT 5000 -RA SCT002 BKN006
TEMPO 2016/2022 3000 DZ BKN002
PROB40
TEMPO 2018/2020 1200 BR
BECMG 2020/2023 9999 NSW FEW006 SCT016
PROB40
TEMPO 2023/2104 5000 BR BKN006
BECMG 2109/2112 18012KT 7000 -RA BKN006 OVC012
TEMPO 2109/2112 3000 RADZ BKN003
PROB30
TEMPO 2110/2112 1200 -SN BKN001
ATIS : +44 1582 395 204
No reported NOTAMs for that airfield.
2 SIGMETs reported for the London FIR (EGTT) :
 
Severe icing
EGTT SIGMET 07 VALID 201500/201700 EGRR
EGTT LONDON FIR SEV ICE FCST WI N5253 W00238 - N5144 W00303 - N5158 W00356 - N5259 W00349 - N5253 W00238 FL020/070 STNR WKN=
Severe turbulence
EGTT SIGMET 06 VALID 201500/201900 EGRR
EGTT LONDON FIR SEV TURB FCST S OF LINE N5000 W00200 - N5100 W00800 SFC/FL060 MOV S 15KT WKN=



MET'MAP, your aeronautical weather chart ! - Copyright ORBIFLY December 2007 - Disclaimer

ORBIFLY MET'MAP TEAM :

Programming & Development : Alexandra Zaïnal
Concept & Development : Baudouin d'Aumeries
Co-Development & Prog : Marc-Olivier Méhu
Technical & hardware support : Manuel Goepfert

Contact : metmap@orbifly.com




SOURCES & CREDITS :

   NOAA